ラパス の空港の天気 - METARとTAF

エル・アルト国際空港 ( SLLP / LPB ) - ボリビア ラパス
飛行場実況気象(Metar)
観測時間06/25 09:00 BOT (06/25 13:00 UTC)
風向・風速不定 1m/s
視程6000m
天気現象
少しの雲 雲底高度 60m
気温5℃
湿度75%
気圧1039hPa
METARSLLP 251300Z VRB02KT 6000 FEW002 05/01 Q1039
過去の天気等 Google飛行場航空写真 Wunderground天気予報

過去48時間のMETAR

飛行場予報(TAF)
発表時間: 6/25 06:50 BOT (6/25 10:50 UTC)
予報対象時間: 25日8時 BOT ~ 26日8時 BOT
風向・風速東南東 3m/s
視程10km以上
少しの雲 雲底高度 520m
25日14時 BOT ~ 25日17時 BOT に一時的に
風向・風速西北西 6m/s
25日23時 BOT ~ 26日2時 BOT に徐々に
TAF SLLP 251050Z 2512/2612 11005KT 9999 FEW017 TX15/2520Z TNM05/2610Z
TEMPO 2518/2521 30012KT
BECMG 2603/2606 3000E VCFG FEW002